createdAt,value
2019-03-16T00:00:33.188Z,100624.63
2019-03-16T00:03:00.574Z,100625.42
2019-03-16T00:05:27.859Z,100624.23
2019-03-16T00:07:55.098Z,100636.66
2019-03-16T00:10:22.444Z,100642.20
2019-03-16T00:12:49.752Z,100645.82
2019-03-16T00:15:17.029Z,100635.55
2019-03-16T00:17:44.301Z,100635.22
2019-03-16T00:20:11.981Z,100639.91
2019-03-16T00:22:39.344Z,100642.84
2019-03-16T00:25:06.621Z,100636.21
2019-03-16T00:27:33.885Z,100649.30
2019-03-16T00:30:01.184Z,100642.76
2019-03-16T00:32:28.458Z,100634.91
2019-03-16T00:34:55.860Z,100642.52
2019-03-16T00:37:23.130Z,100655.24
2019-03-16T00:39:50.558Z,100657.09
2019-03-16T00:42:17.855Z,100662.37
2019-03-16T00:44:47.767Z,100669.45
2019-03-16T00:47:15.065Z,100670.19
2019-03-16T00:49:42.302Z,100676.28
2019-03-16T00:52:09.583Z,100669.92
2019-03-16T00:54:36.847Z,100667.61
2019-03-16T00:57:04.120Z,100663.45
2019-03-16T00:59:31.521Z,100654.94
2019-03-16T01:01:58.953Z,100646.53
2019-03-16T01:04:26.248Z,100649.50
2019-03-16T01:06:53.535Z,100650.20
2019-03-16T01:09:20.810Z,100654.48
2019-03-16T01:11:48.079Z,100647.12
2019-03-16T01:14:15.391Z,100649.24
2019-03-16T01:16:42.796Z,100656.75
2019-03-16T01:19:10.032Z,100654.25
2019-03-16T01:21:37.311Z,100663.64
2019-03-16T01:24:04.569Z,100661.91
2019-03-16T01:26:31.830Z,100647.05
2019-03-16T01:28:59.134Z,100659.41
2019-03-16T01:31:26.394Z,100657.09
2019-03-16T01:33:53.694Z,100666.58
2019-03-16T01:36:21.022Z,100659.56
2019-03-16T01:38:48.281Z,100669.19
2019-03-16T01:41:15.565Z,100666.58
2019-03-16T01:43:42.850Z,100674.90
2019-03-16T01:46:10.123Z,100667.50
2019-03-16T01:48:37.562Z,100667.42
2019-03-16T01:51:04.908Z,100672.35
2019-03-16T01:53:32.157Z,100682.37
2019-03-16T01:55:59.415Z,100681.91
2019-03-16T01:58:26.741Z,100681.83
2019-03-16T02:00:54.017Z,100681.52
2019-03-16T02:03:21.274Z,100684.84
2019-03-16T02:05:48.571Z,100687.84
2019-03-16T02:08:15.921Z,100692.04
2019-03-16T02:10:43.251Z,100698.28
2019-03-16T02:13:10.556Z,100695.23
2019-03-16T02:15:37.884Z,100696.09
2019-03-16T02:18:05.144Z,100695.66
2019-03-16T02:20:32.434Z,100697.23
2019-03-16T02:22:59.693Z,100698.98
2019-03-16T02:25:26.943Z,100702.25
2019-03-16T02:27:54.291Z,100698.97
2019-03-16T02:30:21.594Z,100704.98
2019-03-16T02:32:48.846Z,100697.23
2019-03-16T02:35:16.124Z,100704.13
2019-03-16T02:37:43.364Z,100706.52
2019-03-16T02:40:10.859Z,100705.64
2019-03-16T02:42:38.221Z,100699.20
2019-03-16T02:45:05.550Z,100702.48
2019-03-16T02:47:32.845Z,100703.91
2019-03-16T02:50:00.181Z,100696.70
2019-03-16T02:52:27.761Z,100695.19
2019-03-16T02:54:55.024Z,100693.30
2019-03-16T02:57:22.296Z,100693.42
2019-03-16T02:59:49.626Z,100685.44
2019-03-16T03:02:16.911Z,100690.46
2019-03-16T03:04:46.226Z,100691.66
2019-03-16T03:07:13.352Z,100685.11
2019-03-16T03:09:40.669Z,100675.58
2019-03-16T03:12:07.981Z,100679.12
2019-03-16T03:14:35.319Z,100681.41
2019-03-16T03:17:02.735Z,100686.30
2019-03-16T03:19:30.022Z,100681.83
2019-03-16T03:21:57.302Z,100681.41
2019-03-16T03:24:24.650Z,100683.80
2019-03-16T03:26:51.893Z,100683.26
2019-03-16T03:29:19.346Z,100675.62
2019-03-16T03:31:46.609Z,100673.73
2019-03-16T03:34:14.157Z,100671.42
2019-03-16T03:36:41.483Z,100672.28
2019-03-16T03:39:08.829Z,100674.28
2019-03-16T03:41:36.340Z,100678.44
2019-03-16T03:44:03.610Z,100675.44
2019-03-16T03:46:32.607Z,100681.55
2019-03-16T03:49:00.037Z,100686.88
2019-03-16T03:51:27.266Z,100681.52
2019-03-16T03:53:54.496Z,100687.27
2019-03-16T03:56:21.918Z,100685.18
2019-03-16T03:58:49.278Z,100683.22
2019-03-16T04:01:16.564Z,100687.33
2019-03-16T04:03:43.820Z,100687.68
2019-03-16T04:06:11.147Z,100681.75
2019-03-16T04:08:38.492Z,100680.59
2019-03-16T04:11:05.782Z,100687.18
2019-03-16T04:13:33.069Z,100672.46
2019-03-16T04:16:00.347Z,100674.20
2019-03-16T04:18:27.604Z,100667.57
2019-03-16T04:20:54.975Z,100664.61
2019-03-16T04:23:22.256Z,100667.42
2019-03-16T04:25:49.463Z,100669.81
2019-03-16T04:28:16.848Z,100666.66
2019-03-16T04:30:44.113Z,100662.80
2019-03-16T04:33:11.414Z,100665.41
2019-03-16T04:35:38.722Z,100664.15
2019-03-16T04:38:06.006Z,100660.34
2019-03-16T04:40:33.375Z,100656.36
2019-03-16T04:43:00.680Z,100654.05
2019-03-16T04:45:27.940Z,100662.84
2019-03-16T04:47:55.239Z,100664.37
2019-03-16T04:50:22.504Z,100655.52
2019-03-16T04:52:51.078Z,100663.84
2019-03-16T04:55:18.616Z,100662.41
2019-03-16T04:57:45.873Z,100651.55
2019-03-16T05:00:13.303Z,100650.97
2019-03-16T05:02:40.558Z,100645.62
2019-03-16T05:05:07.819Z,100644.00
2019-03-16T05:07:35.108Z,100644.00
2019-03-16T05:10:02.566Z,100649.74
2019-03-16T05:12:29.822Z,100653.67
2019-03-16T05:14:57.111Z,100653.13
2019-03-16T05:17:24.399Z,100644.77
2019-03-16T05:19:51.693Z,100652.17
2019-03-16T05:22:18.932Z,100645.16
2019-03-16T05:24:46.236Z,100656.52
2019-03-16T05:27:13.622Z,100642.34
2019-03-16T05:29:40.852Z,100643.73
2019-03-16T05:32:08.103Z,100643.23
2019-03-16T05:34:35.387Z,100630.79
2019-03-16T05:37:02.636Z,100639.07
2019-03-16T05:39:30.014Z,100629.37
2019-03-16T05:41:57.357Z,100628.28
2019-03-16T05:44:24.625Z,100632.91
2019-03-16T05:46:51.886Z,100631.48
2019-03-16T05:49:19.130Z,100627.42
2019-03-16T05:51:46.383Z,100628.70
2019-03-16T05:54:13.685Z,100635.68
2019-03-16T05:56:41.009Z,100631.80
2019-03-16T05:59:08.239Z,100622.51
2019-03-16T06:01:35.564Z,100626.67
2019-03-16T06:04:02.810Z,100615.91
2019-03-16T06:06:30.041Z,100627.23
2019-03-16T06:08:57.355Z,100616.16
2019-03-16T06:11:24.618Z,100621.27
2019-03-16T06:13:51.851Z,100619.50
2019-03-16T06:16:19.163Z,100623.66
2019-03-16T06:18:46.416Z,100621.05
2019-03-16T06:21:13.800Z,100615.42
2019-03-16T06:23:41.057Z,100616.30
2019-03-16T06:26:08.324Z,100609.34
2019-03-16T06:28:35.587Z,100614.23
2019-03-16T06:31:02.849Z,100611.88
2019-03-16T06:33:30.145Z,100613.72
2019-03-16T06:35:57.485Z,100614.58
2019-03-16T06:38:24.769Z,100611.61
2019-03-16T06:40:52.008Z,100605.48
2019-03-16T06:43:19.342Z,100611.27
2019-03-16T06:45:46.656Z,100614.23
2019-03-16T06:48:13.913Z,100612.30
2019-03-16T06:50:41.160Z,100610.53
2019-03-16T06:53:08.492Z,100612.95
2019-03-16T06:55:35.777Z,100612.65
2019-03-16T06:58:03.041Z,100618.07
2019-03-16T07:00:30.339Z,100614.92
2019-03-16T07:02:57.627Z,100614.41
2019-03-16T07:05:37.257Z,100611.20
2019-03-16T07:07:54.078Z,100600.20
2019-03-16T07:10:21.387Z,100600.23
2019-03-16T07:12:48.713Z,100599.70
2019-03-16T07:15:15.978Z,100593.70
2019-03-16T07:17:43.364Z,100590.12
2019-03-16T07:20:10.634Z,100581.03
2019-03-16T07:22:37.913Z,100584.17
2019-03-16T07:25:05.311Z,100582.27
2019-03-16T07:27:32.989Z,100576.11
2019-03-16T07:30:00.429Z,100576.76
2019-03-16T07:32:27.735Z,100569.52
2019-03-16T07:34:55.002Z,100561.25
2019-03-16T07:37:23.185Z,100566.06
2019-03-16T07:39:50.497Z,100564.52
2019-03-16T07:42:17.789Z,100560.66
2019-03-16T07:44:45.079Z,100561.16
2019-03-16T07:47:14.528Z,100557.76
2019-03-16T07:49:41.562Z,100551.93
2019-03-16T07:52:08.875Z,100546.27
2019-03-16T07:54:36.188Z,100530.31
2019-03-16T07:57:03.473Z,100528.44
2019-03-16T07:59:30.780Z,100526.74
2019-03-16T08:01:58.089Z,100516.58
2019-03-16T08:04:25.318Z,100518.17
2019-03-16T08:06:52.581Z,100523.62
2019-03-16T08:09:20.046Z,100507.61
2019-03-16T08:11:47.432Z,100501.42
2019-03-16T08:14:14.719Z,100495.95
2019-03-16T08:16:42.013Z,100499.63
2019-03-16T08:19:09.314Z,100491.50
2019-03-16T08:21:36.632Z,100490.42
2019-03-16T08:24:03.949Z,100490.32
2019-03-16T08:26:31.271Z,100487.38
2019-03-16T08:28:59.272Z,100478.38
2019-03-16T08:31:26.704Z,100471.75
2019-03-16T08:33:54.043Z,100473.69
2019-03-16T08:36:21.336Z,100460.81
2019-03-16T08:38:48.589Z,100451.20
2019-03-16T08:41:15.909Z,100442.09
2019-03-16T08:43:43.317Z,100443.23
2019-03-16T08:46:10.672Z,100431.02
2019-03-16T08:48:37.980Z,100428.91
2019-03-16T08:51:05.262Z,100426.20
2019-03-16T08:53:32.619Z,100422.88
2019-03-16T08:55:59.921Z,100415.35
2019-03-16T08:58:27.286Z,100413.18
2019-03-16T09:00:54.746Z,100401.72
2019-03-16T09:03:21.988Z,100399.23
2019-03-16T09:05:49.274Z,100387.50
2019-03-16T09:08:16.767Z,100386.36
2019-03-16T09:10:44.055Z,100375.19
2019-03-16T09:13:11.301Z,100368.83
2019-03-16T09:15:38.642Z,100356.94
2019-03-16T09:18:05.920Z,100346.81
2019-03-16T09:20:33.161Z,100338.23
2019-03-16T09:23:00.701Z,100333.84
2019-03-16T09:25:28.039Z,100322.77
2019-03-16T09:27:55.283Z,100321.03
2019-03-16T09:30:22.575Z,100318.75
2019-03-16T09:32:50.029Z,100313.86
2019-03-16T09:35:17.351Z,100304.87
2019-03-16T09:37:44.607Z,100314.18
2019-03-16T09:40:11.947Z,100297.78
2019-03-16T09:42:39.295Z,100279.77
2019-03-16T09:45:07.619Z,100285.20
2019-03-16T09:47:34.907Z,100293.59
2019-03-16T09:50:02.238Z,100289.67
2019-03-16T09:52:29.555Z,100276.73
2019-03-16T09:54:56.995Z,100279.20
2019-03-16T09:57:24.234Z,100265.72
2019-03-16T09:59:51.545Z,100261.44
2019-03-16T10:02:19.041Z,100247.30
2019-03-16T10:04:46.324Z,100256.39
2019-03-16T10:07:14.174Z,100237.79
2019-03-16T10:09:41.554Z,100248.03
2019-03-16T10:12:08.849Z,100238.67
2019-03-16T10:14:37.409Z,100235.88
2019-03-16T10:17:04.708Z,100237.52
2019-03-16T10:19:32.100Z,100221.52
2019-03-16T10:21:59.375Z,100205.66
2019-03-16T10:24:26.635Z,100201.81
2019-03-16T10:26:53.909Z,100205.32
2019-03-16T10:29:21.193Z,100211.93
2019-03-16T10:31:48.539Z,100195.78
2019-03-16T10:34:15.799Z,100181.24
2019-03-16T10:36:43.365Z,100185.91
2019-03-16T10:39:10.616Z,100176.02
2019-03-16T10:41:38.237Z,100165.34
2019-03-16T10:44:05.699Z,100168.12
2019-03-16T10:46:32.988Z,100166.02
2019-03-16T10:49:00.297Z,100158.94
2019-03-16T10:51:27.841Z,100154.34
2019-03-16T10:53:55.180Z,100150.79
2019-03-16T10:56:22.542Z,100148.52
2019-03-16T10:58:56.483Z,100146.23
2019-03-16T11:01:19.057Z,100139.12
2019-03-16T11:03:46.354Z,100143.69
2019-03-16T11:06:13.656Z,100144.70
2019-03-16T11:08:40.958Z,100137.34
2019-03-16T11:11:08.197Z,100140.66
2019-03-16T11:13:35.563Z,100129.45
2019-03-16T11:16:02.864Z,100131.27
2019-03-16T11:18:30.153Z,100129.66
2019-03-16T11:20:57.463Z,100139.73
2019-03-16T11:23:24.750Z,100131.48
2019-03-16T11:25:52.184Z,100135.48
2019-03-16T11:28:19.543Z,100126.29
2019-03-16T11:30:46.788Z,100132.48
2019-03-16T11:33:14.242Z,100135.22
2019-03-16T11:35:41.522Z,100121.66
2019-03-16T11:38:08.809Z,100133.53
2019-03-16T11:40:36.121Z,100113.01
2019-03-16T11:43:03.436Z,100121.44
2019-03-16T11:45:30.754Z,100126.38
2019-03-16T11:47:58.145Z,100117.49
2019-03-16T11:50:25.476Z,100111.64
2019-03-16T11:52:52.784Z,100108.49
2019-03-16T11:55:20.059Z,100106.73
2019-03-16T11:57:47.346Z,100090.09
2019-03-16T12:00:15.011Z,100096.22
2019-03-16T12:02:42.307Z,100100.05
2019-03-16T12:05:09.573Z,100093.97
2019-03-16T12:07:36.887Z,100104.09
2019-03-16T12:10:04.300Z,100094.48
2019-03-16T12:12:31.566Z,100098.96
2019-03-16T12:14:58.875Z,100075.19
2019-03-16T12:17:26.582Z,100081.05
2019-03-16T12:19:58.331Z,100079.73
2019-03-16T12:22:25.653Z,100089.31
2019-03-16T12:24:53.021Z,100073.97
2019-03-16T12:27:20.245Z,100068.67
2019-03-16T12:29:47.529Z,100075.19
2019-03-16T12:32:14.790Z,100075.19
2019-03-16T12:34:42.093Z,100062.48
2019-03-16T12:37:09.410Z,100059.58
2019-03-16T12:39:36.682Z,100038.21
2019-03-16T12:42:03.950Z,100062.42
2019-03-16T12:44:31.499Z,100018.61
2019-03-16T12:46:58.769Z,100058.09
2019-03-16T12:49:26.186Z,100048.40
2019-03-16T12:51:53.440Z,100036.58
2019-03-16T12:54:20.754Z,100032.78
2019-03-16T12:56:48.007Z,100010.27
2019-03-16T12:59:15.283Z,100010.27
2019-03-16T13:01:42.574Z,100016.47
2019-03-16T13:04:09.808Z,100009.45
2019-03-16T13:06:37.048Z,100014.70
2019-03-16T13:09:06.805Z,100015.16
2019-03-16T13:11:34.111Z,100018.31
2019-03-16T13:14:01.488Z,100002.44
2019-03-16T13:16:31.031Z,100001.23
2019-03-16T13:18:58.314Z,100008.73
2019-03-16T13:21:25.719Z,100015.30
2019-03-16T13:23:53.002Z,100032.23
2019-03-16T13:26:20.270Z,100018.16
2019-03-16T13:28:47.586Z,100014.77
2019-03-16T13:31:14.922Z,100009.84
2019-03-16T13:33:42.176Z,100004.14
2019-03-16T13:36:11.476Z,99995.08
2019-03-16T13:38:38.789Z,99994.51
2019-03-16T13:41:06.079Z,100000.73
2019-03-16T13:43:33.502Z,99996.50
2019-03-16T13:46:00.832Z,99994.65
2019-03-16T13:48:28.188Z,99995.96
2019-03-16T13:50:55.473Z,99975.03
2019-03-16T13:53:22.793Z,99976.33
2019-03-16T13:55:50.613Z,99953.99
2019-03-16T13:58:18.028Z,99953.99
2019-03-16T14:00:45.622Z,99962.27
2019-03-16T14:03:13.183Z,99966.88
2019-03-16T14:05:42.118Z,99953.65
2019-03-16T14:08:12.746Z,99949.36
2019-03-16T14:10:40.576Z,99954.13
2019-03-16T14:13:08.180Z,99969.95
2019-03-16T14:15:35.669Z,99944.58
2019-03-16T14:18:03.417Z,99945.54
2019-03-16T14:20:30.817Z,99949.05
2019-03-16T14:22:58.725Z,99949.05
2019-03-16T14:25:26.367Z,99963.61
2019-03-16T14:27:59.588Z,99948.79
2019-03-16T14:30:40.316Z,99943.88
2019-03-16T14:32:56.227Z,99951.38
2019-03-16T14:35:23.691Z,99952.34
2019-03-16T14:37:51.290Z,99940.41
2019-03-16T14:40:18.982Z,99946.46
2019-03-16T14:42:49.360Z,99931.08
2019-03-16T14:45:18.120Z,99918.14
2019-03-16T14:47:45.798Z,99926.47
2019-03-16T14:50:16.495Z,99912.31
2019-03-16T14:52:44.603Z,99911.48
2019-03-16T14:55:12.304Z,99907.48
2019-03-16T14:57:39.916Z,99888.98
2019-03-16T15:00:09.293Z,99885.52
2019-03-16T15:02:39.413Z,99890.87
2019-03-16T15:05:07.279Z,99885.52
2019-03-16T15:07:34.933Z,99885.52
2019-03-16T15:10:02.600Z,99869.22
2019-03-16T15:12:30.127Z,99870.58
2019-03-16T15:14:57.491Z,99858.26
2019-03-16T15:17:25.595Z,99847.69
2019-03-16T15:19:53.333Z,99847.69
2019-03-16T15:22:24.043Z,99849.84
2019-03-16T15:24:51.793Z,99863.47
2019-03-16T15:27:19.231Z,99843.14
2019-03-16T15:29:46.786Z,99855.94
2019-03-16T15:32:14.220Z,99833.70
2019-03-16T15:34:41.692Z,99851.55
2019-03-16T15:37:09.467Z,99844.58
2019-03-16T15:39:36.934Z,99818.47
2019-03-16T15:42:04.678Z,99845.81
2019-03-16T15:44:32.674Z,99834.90
2019-03-16T15:47:00.203Z,99837.41
2019-03-16T15:49:27.733Z,99828.20
2019-03-16T15:51:55.144Z,99820.34
2019-03-16T15:54:22.708Z,99809.47
2019-03-16T15:56:56.120Z,99821.34
2019-03-16T15:59:24.994Z,99810.03
2019-03-16T16:01:52.479Z,99820.12
2019-03-16T16:04:19.988Z,99818.36
2019-03-16T16:06:47.584Z,99818.80
2019-03-16T16:09:15.202Z,99829.80
2019-03-16T16:11:42.692Z,99829.77
2019-03-16T16:14:10.091Z,99833.34
2019-03-16T16:16:37.572Z,99805.66
2019-03-16T16:19:04.826Z,99796.45
2019-03-16T16:21:32.080Z,99804.77
2019-03-16T16:23:59.675Z,99813.10
2019-03-16T16:26:27.212Z,99780.14
2019-03-16T16:28:54.739Z,99806.01
2019-03-16T16:31:25.283Z,99795.92
2019-03-16T16:33:52.580Z,99779.63
2019-03-16T16:36:19.924Z,99766.44
2019-03-16T16:38:47.183Z,99760.62
2019-03-16T16:41:14.494Z,99761.18
2019-03-16T16:43:41.941Z,99761.18
2019-03-16T16:46:11.476Z,99771.27
2019-03-16T16:48:38.749Z,99781.82
2019-03-16T16:51:06.032Z,99775.69
2019-03-16T16:53:33.308Z,99779.07
2019-03-16T16:56:00.612Z,99773.49
2019-03-16T16:58:27.917Z,99773.56
2019-03-16T17:00:55.124Z,99774.88
2019-03-16T17:03:22.380Z,99760.74
2019-03-16T17:05:49.690Z,99786.13
2019-03-16T17:08:16.911Z,99765.52
2019-03-16T17:10:44.208Z,99779.11
2019-03-16T17:13:11.450Z,99770.27
2019-03-16T17:15:38.745Z,99772.94
2019-03-16T17:18:06.162Z,99782.09
2019-03-16T17:20:33.549Z,99777.67
2019-03-16T17:23:00.898Z,99768.39
2019-03-16T17:25:28.142Z,99777.59
2019-03-16T17:27:55.446Z,99772.41
2019-03-16T17:30:22.791Z,99764.97
2019-03-16T17:32:50.137Z,99758.80
2019-03-16T17:35:17.418Z,99768.34
2019-03-16T17:37:44.691Z,99758.23
2019-03-16T17:40:12.293Z,99762.61
2019-03-16T17:42:39.700Z,99745.96
2019-03-16T17:45:07.717Z,99770.94
2019-03-16T17:47:35.150Z,99774.08
2019-03-16T17:50:03.259Z,99767.83
2019-03-16T17:52:30.553Z,99763.88
2019-03-16T17:54:57.890Z,99775.31
2019-03-16T17:57:25.164Z,99769.19
2019-03-16T17:59:52.450Z,99767.55
2019-03-16T18:02:19.755Z,99747.83
2019-03-16T18:04:46.997Z,99743.37
2019-03-16T18:07:14.317Z,99749.06
2019-03-16T18:09:41.605Z,99739.43
2019-03-16T18:12:08.914Z,99739.43
2019-03-16T18:14:36.225Z,99736.36
2019-03-16T18:17:03.545Z,99731.02
2019-03-16T18:19:30.832Z,99741.58
2019-03-16T18:21:58.602Z,99767.59
2019-03-16T18:24:25.875Z,99741.18
2019-03-16T18:26:53.136Z,99752.02
2019-03-16T18:29:20.414Z,99749.22
2019-03-16T18:31:47.716Z,99737.67
2019-03-16T18:34:15.054Z,99757.39
2019-03-16T18:36:42.349Z,99756.55
2019-03-16T18:39:09.719Z,99739.91
2019-03-16T18:41:37.015Z,99739.34
2019-03-16T18:44:04.282Z,99725.80
2019-03-16T18:46:31.566Z,99731.94
2019-03-16T18:48:58.894Z,99746.48
2019-03-16T18:51:27.678Z,99746.88
2019-03-16T18:53:54.996Z,99741.22
2019-03-16T18:56:22.268Z,99725.48
2019-03-16T18:58:49.524Z,99730.70
2019-03-16T19:01:16.877Z,99726.32
2019-03-16T19:03:44.142Z,99730.19
2019-03-16T19:06:11.383Z,99738.16
2019-03-16T19:08:38.733Z,99728.95
2019-03-16T19:11:05.995Z,99723.33
2019-03-16T19:13:33.698Z,99719.87
2019-03-16T19:16:00.997Z,99715.92
2019-03-16T19:18:28.284Z,99715.09
2019-03-16T19:20:55.541Z,99705.84
2019-03-16T19:23:22.772Z,99695.73
2019-03-16T19:25:50.085Z,99697.55
2019-03-16T19:28:18.644Z,99697.52
2019-03-16T19:30:46.108Z,99702.89
2019-03-16T19:33:13.400Z,99697.70
2019-03-16T19:35:41.128Z,99687.98
2019-03-16T19:38:08.402Z,99687.58
2019-03-16T19:40:36.094Z,99697.19
2019-03-16T19:43:03.364Z,99700.26
2019-03-16T19:45:30.733Z,99702.55
2019-03-16T19:47:58.209Z,99689.84
2019-03-16T19:50:25.473Z,99685.47
2019-03-16T19:52:52.810Z,99664.89
2019-03-16T19:55:20.113Z,99635.39
2019-03-16T19:57:47.432Z,99663.04
2019-03-16T20:00:14.697Z,99652.16
2019-03-16T20:02:50.249Z,99638.59
2019-03-16T20:05:11.456Z,99671.91
2019-03-16T20:07:38.717Z,99656.56
2019-03-16T20:10:06.575Z,99657.08
2019-03-16T20:12:33.802Z,99656.60
2019-03-16T20:15:01.100Z,99666.25
2019-03-16T20:17:28.390Z,99647.36
2019-03-16T20:19:55.620Z,99628.08
2019-03-16T20:22:22.951Z,99645.20
2019-03-16T20:24:50.362Z,99652.72
2019-03-16T20:27:17.649Z,99652.72
2019-03-16T20:29:44.895Z,99648.27
2019-03-16T20:32:12.187Z,99634.75
2019-03-16T20:34:39.475Z,99646.59
2019-03-16T20:37:06.745Z,99627.23
2019-03-16T20:39:33.974Z,99621.53
2019-03-16T20:42:01.219Z,99613.64
2019-03-16T20:44:28.514Z,99621.94
2019-03-16T20:46:55.813Z,99610.61
2019-03-16T20:49:23.165Z,99592.59
2019-03-16T20:51:50.491Z,99575.16
2019-03-16T20:54:17.751Z,99606.72
2019-03-16T20:56:45.003Z,99575.19
2019-03-16T20:59:12.303Z,99580.39
2019-03-16T21:01:39.702Z,99579.08
2019-03-16T21:04:07.013Z,99579.08
2019-03-16T21:06:34.324Z,99576.44
2019-03-16T21:09:03.295Z,99572.09
2019-03-16T21:11:31.014Z,99572.09
2019-03-16T21:13:58.358Z,99568.98
2019-03-16T21:16:25.656Z,99554.91
2019-03-16T21:18:52.928Z,99554.91
2019-03-16T21:21:20.180Z,99582.08
2019-03-16T21:23:47.467Z,99574.25
2019-03-16T21:26:14.772Z,99565.42
2019-03-16T21:28:42.042Z,99564.58
2019-03-16T21:31:09.423Z,99554.88
2019-03-16T21:33:36.810Z,99545.29
2019-03-16T21:36:05.143Z,99557.59
2019-03-16T21:38:32.495Z,99558.09
2019-03-16T21:40:59.750Z,99551.52
2019-03-16T21:43:29.873Z,99537.86
2019-03-16T21:45:57.178Z,99552.30
2019-03-16T21:48:24.421Z,99552.77
2019-03-16T21:50:51.754Z,99544.94
2019-03-16T21:53:18.986Z,99538.36
2019-03-16T21:55:46.262Z,99530.00
2019-03-16T21:58:13.572Z,99526.49
2019-03-16T22:00:40.833Z,99526.49
2019-03-16T22:03:08.101Z,99524.27
2019-03-16T22:05:35.392Z,99527.31
2019-03-16T22:08:03.172Z,99523.84
2019-03-16T22:10:30.465Z,99523.84
2019-03-16T22:12:58.390Z,99534.82
2019-03-16T22:15:25.622Z,99520.33
2019-03-16T22:17:52.919Z,99513.72
2019-03-16T22:20:20.157Z,99499.26
2019-03-16T22:22:47.439Z,99504.49
2019-03-16T22:25:14.926Z,99508.96
2019-03-16T22:27:45.109Z,99518.98
2019-03-16T22:30:12.990Z,99511.59
2019-03-16T22:32:40.306Z,99497.53
2019-03-16T22:35:09.381Z,99478.68
2019-03-16T22:37:36.837Z,99471.64
2019-03-16T22:40:04.247Z,99475.53
2019-03-16T22:42:31.539Z,99462.02
2019-03-16T22:44:58.799Z,99462.02
2019-03-16T22:47:26.185Z,99456.73
2019-03-16T22:49:53.450Z,99448.87
2019-03-16T22:52:20.717Z,99436.59
2019-03-16T22:54:48.004Z,99457.12
2019-03-16T22:57:15.260Z,99460.14
2019-03-16T22:59:42.537Z,99457.06
2019-03-16T23:02:09.796Z,99442.66
2019-03-16T23:04:37.073Z,99429.05
2019-03-16T23:07:04.340Z,99451.86
2019-03-16T23:09:31.720Z,99450.55
2019-03-16T23:11:59.108Z,99450.58
2019-03-16T23:14:26.511Z,99446.63
2019-03-16T23:16:53.835Z,99443.59
2019-03-16T23:19:21.105Z,99434.36
2019-03-16T23:21:48.380Z,99428.66
2019-03-16T23:24:15.661Z,99415.05
2019-03-16T23:26:42.937Z,99421.18
2019-03-16T23:29:10.195Z,99415.53
2019-03-16T23:31:37.482Z,99414.66
2019-03-16T23:34:04.733Z,99401.89
2019-03-16T23:36:32.015Z,99404.50
2019-03-16T23:39:02.222Z,99388.63
2019-03-16T23:41:28.439Z,99388.63
2019-03-16T23:43:55.769Z,99374.99
2019-03-16T23:46:23.100Z,99377.20
2019-03-16T23:48:52.387Z,99361.41
2019-03-16T23:51:19.629Z,99367.54
2019-03-16T23:53:46.892Z,99355.34
2019-03-16T23:56:14.188Z,99359.73
2019-03-16T23:58:41.425Z,99359.29
